createdAt,value
2018-09-01T00:00:23.381Z,13.17
2018-09-01T00:01:23.370Z,13.20
2018-09-01T00:02:23.358Z,13.22
2018-09-01T00:03:23.347Z,13.08
2018-09-01T00:04:23.336Z,13.11
2018-09-01T00:05:23.391Z,13.03
2018-09-01T00:06:23.317Z,13.12
2018-09-01T00:07:23.344Z,13.10
2018-09-01T00:08:23.292Z,13.11
2018-09-01T00:09:23.286Z,13.10
2018-09-01T00:10:23.340Z,13.07
2018-09-01T00:11:23.320Z,13.04
2018-09-01T00:12:23.248Z,13.08
2018-09-01T00:13:23.238Z,13.10
2018-09-01T00:14:23.228Z,13.12
2018-09-01T00:15:23.286Z,13.07
2018-09-01T00:16:23.211Z,13.07
2018-09-01T00:17:23.198Z,13.05
2018-09-01T00:18:23.198Z,13.05
2018-09-01T00:19:23.178Z,13.00
2018-09-01T00:20:23.716Z,13.01
2018-09-01T00:21:23.157Z,13.01
2018-09-01T00:22:31.271Z,13.01
2018-09-01T00:23:31.280Z,12.95
2018-09-01T00:24:31.295Z,12.96
2018-09-01T00:25:31.370Z,12.95
2018-09-01T00:26:31.240Z,12.95
2018-09-01T00:27:23.121Z,12.92
2018-09-01T00:28:23.086Z,12.93
2018-09-01T00:29:23.071Z,12.87
2018-09-01T00:30:31.361Z,12.97
2018-09-01T00:31:31.635Z,12.82
2018-09-01T00:32:31.137Z,12.87
2018-09-01T00:33:31.141Z,12.79
2018-09-01T00:34:31.652Z,12.86
2018-09-01T00:35:30.596Z,12.85
2018-09-01T00:36:22.997Z,12.83
2018-09-01T00:37:23.009Z,12.83
2018-09-01T00:38:22.981Z,12.77
2018-09-01T00:39:22.963Z,12.75
2018-09-01T00:40:23.019Z,12.86
2018-09-01T00:41:22.941Z,12.72
2018-09-01T00:42:22.933Z,12.71
2018-09-01T00:43:22.924Z,12.79
2018-09-01T00:44:22.910Z,12.77
2018-09-01T00:45:22.969Z,12.75
2018-09-01T00:46:23.565Z,12.75
2018-09-01T00:47:22.880Z,12.78
2018-09-01T00:48:22.869Z,12.62
2018-09-01T00:49:22.858Z,12.65
2018-09-01T00:50:23.565Z,12.60
2018-09-01T00:51:22.838Z,12.67
2018-09-01T00:52:22.827Z,12.67
2018-09-01T00:53:22.817Z,12.60
2018-09-01T00:54:22.808Z,12.52
2018-09-01T00:55:22.857Z,12.64
2018-09-01T00:56:23.570Z,12.57
2018-09-01T00:57:22.769Z,12.53
2018-09-01T00:58:22.761Z,12.53
2018-09-01T00:59:22.753Z,12.50
2018-09-01T01:00:22.812Z,12.52
2018-09-01T01:01:22.730Z,12.53
2018-09-01T01:02:22.719Z,12.52
2018-09-01T01:03:22.708Z,12.47
2018-09-01T01:04:22.703Z,12.52
2018-09-01T01:05:22.753Z,12.47
2018-09-01T01:06:22.681Z,12.46
2018-09-01T01:07:22.668Z,12.49
2018-09-01T01:08:22.653Z,12.42
2018-09-01T01:09:22.645Z,12.42
2018-09-01T01:10:22.704Z,12.49
2018-09-01T01:11:22.623Z,12.47
2018-09-01T01:12:22.614Z,12.42
2018-09-01T01:13:22.605Z,12.41
2018-09-01T01:14:22.592Z,12.38
2018-09-01T01:15:22.648Z,12.37
2018-09-01T01:16:22.572Z,12.29
2018-09-01T01:17:23.063Z,12.34
2018-09-01T01:18:22.551Z,12.31
2018-09-01T01:19:22.542Z,12.28
2018-09-01T01:20:22.592Z,12.19
2018-09-01T01:21:22.518Z,12.27
2018-09-01T01:22:22.507Z,12.21
2018-09-01T01:23:22.495Z,12.20
2018-09-01T01:24:22.484Z,12.19
2018-09-01T01:25:22.535Z,12.17
2018-09-01T01:26:22.462Z,12.19
2018-09-01T01:27:22.454Z,12.19
2018-09-01T01:28:22.448Z,12.10
2018-09-01T01:29:22.432Z,12.19
2018-09-01T01:30:22.485Z,12.12
2018-09-01T01:31:22.410Z,12.10
2018-09-01T01:32:22.399Z,12.02
2018-09-01T01:33:22.387Z,12.09
2018-09-01T01:34:22.377Z,11.96
2018-09-01T01:35:22.432Z,11.94
2018-09-01T01:36:22.358Z,11.96
2018-09-01T01:37:22.347Z,11.96
2018-09-01T01:38:23.062Z,11.95
2018-09-01T01:39:22.332Z,11.91
2018-09-01T01:40:22.379Z,11.98
2018-09-01T01:41:22.318Z,11.90
2018-09-01T01:42:22.294Z,11.90
2018-09-01T01:43:22.283Z,11.99
2018-09-01T01:44:22.274Z,11.94
2018-09-01T01:45:22.338Z,12.01
2018-09-01T01:46:22.250Z,11.91
2018-09-01T01:47:22.244Z,11.95
2018-09-01T01:48:22.234Z,11.95
2018-09-01T01:49:22.222Z,11.83
2018-09-01T01:50:22.206Z,11.85
2018-09-01T01:51:22.266Z,11.91
2018-09-01T01:52:22.187Z,11.80
2018-09-01T01:53:22.180Z,11.80
2018-09-01T01:54:22.167Z,11.85
2018-09-01T01:55:22.159Z,11.83
2018-09-01T01:56:22.212Z,11.76
2018-09-01T01:57:22.133Z,11.72
2018-09-01T01:58:22.123Z,11.72
2018-09-01T01:59:23.056Z,11.78
2018-09-01T02:00:22.098Z,11.73
2018-09-01T02:01:22.157Z,11.67
2018-09-01T02:02:22.081Z,11.61
2018-09-01T02:03:22.068Z,11.64
2018-09-01T02:04:22.059Z,11.61
2018-09-01T02:05:22.048Z,11.57
2018-09-01T02:06:22.104Z,11.65
2018-09-01T02:07:22.029Z,11.67
2018-09-01T02:08:22.015Z,11.60
2018-09-01T02:09:22.007Z,11.57
2018-09-01T02:10:21.998Z,11.61
2018-09-01T02:11:22.050Z,11.70
2018-09-01T02:12:21.973Z,11.67
2018-09-01T02:13:21.962Z,11.70
2018-09-01T02:14:21.954Z,11.65
2018-09-01T02:15:21.943Z,11.64
2018-09-01T02:16:21.995Z,11.70
2018-09-01T02:17:21.924Z,11.57
2018-09-01T02:18:21.912Z,11.55
2018-09-01T02:19:21.899Z,11.55
2018-09-01T02:20:22.553Z,11.62
2018-09-01T02:21:21.946Z,11.57
2018-09-01T02:22:21.866Z,11.58
2018-09-01T02:23:21.858Z,11.58
2018-09-01T02:24:21.846Z,11.58
2018-09-01T02:25:21.836Z,11.46
2018-09-01T02:26:21.890Z,11.60
2018-09-01T02:27:21.813Z,11.51
2018-09-01T02:28:21.808Z,11.60
2018-09-01T02:29:21.796Z,11.64
2018-09-01T02:30:21.786Z,11.57
2018-09-01T02:31:21.840Z,11.58
2018-09-01T02:32:21.764Z,11.52
2018-09-01T02:33:21.751Z,11.54
2018-09-01T02:34:21.746Z,11.55
2018-09-01T02:35:21.733Z,11.58
2018-09-01T02:36:21.787Z,11.60
2018-09-01T02:37:21.707Z,11.57
2018-09-01T02:38:21.697Z,11.49
2018-09-01T02:39:21.689Z,11.42
2018-09-01T02:40:21.677Z,11.36
2018-09-01T02:41:22.125Z,11.47
2018-09-01T02:42:21.660Z,11.39
2018-09-01T02:43:21.648Z,11.39
2018-09-01T02:44:21.633Z,11.27
2018-09-01T02:45:21.622Z,11.36
2018-09-01T02:46:21.680Z,11.35
2018-09-01T02:47:21.603Z,11.36
2018-09-01T02:48:21.601Z,11.39
2018-09-01T02:49:21.586Z,11.33
2018-09-01T02:50:21.575Z,11.35
2018-09-01T02:51:21.625Z,11.28
2018-09-01T02:52:21.553Z,11.27
2018-09-01T02:53:21.545Z,11.27
2018-09-01T02:54:21.533Z,11.19
2018-09-01T02:55:21.526Z,11.27
2018-09-01T02:56:21.578Z,11.35
2018-09-01T02:57:21.503Z,11.28
2018-09-01T02:58:21.489Z,11.32
2018-09-01T02:59:21.477Z,11.18
2018-09-01T03:00:21.464Z,11.28
2018-09-01T03:01:21.525Z,11.27
2018-09-01T03:02:22.047Z,11.10
2018-09-01T03:03:21.436Z,11.27
2018-09-01T03:04:21.426Z,11.27
2018-09-01T03:05:21.415Z,11.22
2018-09-01T03:06:21.475Z,11.15
2018-09-01T03:07:21.393Z,11.22
2018-09-01T03:08:21.381Z,11.28
2018-09-01T03:09:21.378Z,11.19
2018-09-01T03:10:21.364Z,11.17
2018-09-01T03:11:21.420Z,11.17
2018-09-01T03:12:21.340Z,11.17
2018-09-01T03:13:21.331Z,11.06
2018-09-01T03:14:21.318Z,11.09
2018-09-01T03:15:21.306Z,10.97
2018-09-01T03:16:21.365Z,11.00
2018-09-01T03:17:21.287Z,11.04
2018-09-01T03:18:21.281Z,11.02
2018-09-01T03:19:21.265Z,11.06
2018-09-01T03:20:21.257Z,10.96
2018-09-01T03:21:21.310Z,11.00
2018-09-01T03:22:21.235Z,11.00
2018-09-01T03:23:22.045Z,10.91
2018-09-01T03:24:21.215Z,11.00
2018-09-01T03:25:21.207Z,10.96
2018-09-01T03:26:21.268Z,10.89
2018-09-01T03:27:22.048Z,10.94
2018-09-01T03:28:21.173Z,10.88
2018-09-01T03:29:21.160Z,10.82
2018-09-01T03:30:21.156Z,10.89
2018-09-01T03:31:21.143Z,10.94
2018-09-01T03:32:21.620Z,10.84
2018-09-01T03:33:21.119Z,10.86
2018-09-01T03:34:21.109Z,10.82
2018-09-01T03:35:21.096Z,10.84
2018-09-01T03:36:21.088Z,10.81
2018-09-01T03:37:21.147Z,10.79
2018-09-01T03:38:21.063Z,10.81
2018-09-01T03:39:21.058Z,10.82
2018-09-01T03:40:21.050Z,10.78
2018-09-01T03:41:21.033Z,10.78
2018-09-01T03:42:21.091Z,10.84
2018-09-01T03:43:21.010Z,10.70
2018-09-01T03:44:21.540Z,10.68
2018-09-01T03:45:20.991Z,10.71
2018-09-01T03:46:20.986Z,10.74
2018-09-01T03:47:21.046Z,10.71
2018-09-01T03:48:20.962Z,10.71
2018-09-01T03:49:20.955Z,10.61
2018-09-01T03:50:20.941Z,10.64
2018-09-01T03:51:20.930Z,10.60
2018-09-01T03:52:20.983Z,10.70
2018-09-01T03:53:20.908Z,10.60
2018-09-01T03:54:20.958Z,10.56
2018-09-01T03:55:20.889Z,10.61
2018-09-01T03:56:20.875Z,10.61
2018-09-01T03:57:20.943Z,10.53
2018-09-01T03:58:20.854Z,10.56
2018-09-01T03:59:20.843Z,10.52
2018-09-01T04:00:20.834Z,10.48
2018-09-01T04:01:20.822Z,10.47
2018-09-01T04:02:20.883Z,10.47
2018-09-01T04:03:20.801Z,10.48
2018-09-01T04:04:20.792Z,10.44
2018-09-01T04:05:21.545Z,10.41
2018-09-01T04:06:20.776Z,10.48
2018-09-01T04:07:29.160Z,10.44
2018-09-01T04:08:28.945Z,10.40
2018-09-01T04:09:28.846Z,10.47
2018-09-01T04:10:20.728Z,10.45
2018-09-01T04:11:20.718Z,10.51
2018-09-01T04:12:20.772Z,10.44
2018-09-01T04:13:20.701Z,10.40
2018-09-01T04:14:20.687Z,10.52
2018-09-01T04:15:20.674Z,10.51
2018-09-01T04:16:20.662Z,10.42
2018-09-01T04:17:28.869Z,10.34
2018-09-01T04:18:29.206Z,10.40
2018-09-01T04:19:20.635Z,10.42
2018-09-01T04:20:20.631Z,10.34
2018-09-01T04:21:20.613Z,10.40
2018-09-01T04:22:20.665Z,10.40
2018-09-01T04:23:20.590Z,10.33
2018-09-01T04:24:20.577Z,10.38
2018-09-01T04:25:20.566Z,10.40
2018-09-01T04:26:20.558Z,10.34
2018-09-01T04:27:20.617Z,10.32
2018-09-01T04:28:21.214Z,10.32
2018-09-01T04:29:21.216Z,10.38
2018-09-01T04:30:20.519Z,10.34
2018-09-01T04:31:20.505Z,10.30
2018-09-01T04:32:20.568Z,10.47
2018-09-01T04:33:20.484Z,10.33
2018-09-01T04:34:20.499Z,10.32
2018-09-01T04:35:20.468Z,10.23
2018-09-01T04:36:20.450Z,10.25
2018-09-01T04:37:20.506Z,10.29
2018-09-01T04:38:20.436Z,10.33
2018-09-01T04:39:20.425Z,10.26
2018-09-01T04:40:20.414Z,10.33
2018-09-01T04:41:20.398Z,10.30
2018-09-01T04:42:20.471Z,10.27
2018-09-01T04:43:20.378Z,10.30
2018-09-01T04:44:20.381Z,10.29
2018-09-01T04:45:20.361Z,10.30
2018-09-01T04:46:20.348Z,10.30
2018-09-01T04:47:20.407Z,10.27
2018-09-01T04:48:20.328Z,10.27
2018-09-01T04:49:20.314Z,10.29
2018-09-01T04:50:21.208Z,10.29
2018-09-01T04:51:20.295Z,10.18
2018-09-01T04:52:20.352Z,10.25
2018-09-01T04:53:20.275Z,10.20
2018-09-01T04:54:20.265Z,10.25
2018-09-01T04:55:20.253Z,10.30
2018-09-01T04:56:20.243Z,10.30
2018-09-01T04:57:20.301Z,10.18
2018-09-01T04:58:20.223Z,10.25
2018-09-01T04:59:20.210Z,10.26
2018-09-01T05:00:20.207Z,10.26
2018-09-01T05:01:20.256Z,10.25
2018-09-01T05:02:20.243Z,10.32
2018-09-01T05:03:20.165Z,10.18
2018-09-01T05:04:20.160Z,10.29
2018-09-01T05:05:20.146Z,10.26
2018-09-01T05:06:20.137Z,10.11
2018-09-01T05:07:20.193Z,10.18
2018-09-01T05:08:20.116Z,10.14
2018-09-01T05:09:20.102Z,10.20
2018-09-01T05:10:20.094Z,10.23
2018-09-01T05:11:20.706Z,10.23
2018-09-01T05:12:20.072Z,10.23
2018-09-01T05:13:20.126Z,10.23
2018-09-01T05:14:20.052Z,10.23
2018-09-01T05:15:20.041Z,10.26
2018-09-01T05:16:20.032Z,10.22
2018-09-01T05:17:20.022Z,10.30
2018-09-01T05:18:20.076Z,10.26
2018-09-01T05:19:20.000Z,10.27
2018-09-01T05:20:19.991Z,10.26
2018-09-01T05:21:19.985Z,10.25
2018-09-01T05:22:19.967Z,10.29
2018-09-01T05:23:20.024Z,10.18
2018-09-01T05:24:19.957Z,10.29
2018-09-01T05:25:19.933Z,10.26
2018-09-01T05:26:19.925Z,10.22
2018-09-01T05:27:19.911Z,10.27
2018-09-01T05:28:19.971Z,10.23
2018-09-01T05:29:19.894Z,10.30
2018-09-01T05:30:19.883Z,10.25
2018-09-01T05:31:19.872Z,10.30
2018-09-01T05:32:20.704Z,10.32
2018-09-01T05:33:19.921Z,10.27
2018-09-01T05:34:19.836Z,10.29
2018-09-01T05:35:19.825Z,10.29
2018-09-01T05:36:19.821Z,10.47
2018-09-01T05:37:19.805Z,10.40
2018-09-01T05:38:19.866Z,10.33
2018-09-01T05:39:19.788Z,10.34
2018-09-01T05:40:19.775Z,10.51
2018-09-01T05:41:19.766Z,10.51
2018-09-01T05:42:19.758Z,10.51
2018-09-01T05:43:19.811Z,10.48
2018-09-01T05:44:19.733Z,10.44
2018-09-01T05:45:19.722Z,10.51
2018-09-01T05:46:19.714Z,10.56
2018-09-01T05:47:19.700Z,10.61
2018-09-01T05:48:19.758Z,10.60
2018-09-01T05:49:19.681Z,10.68
2018-09-01T05:50:19.670Z,10.67
2018-09-01T05:51:19.668Z,10.66
2018-09-01T05:52:19.660Z,10.74
2018-09-01T05:53:19.782Z,10.70
2018-09-01T05:54:19.631Z,10.71
2018-09-01T05:55:19.617Z,10.73
2018-09-01T05:56:19.606Z,10.82
2018-09-01T05:57:19.595Z,10.78
2018-09-01T05:58:19.772Z,10.78
2018-09-01T05:59:19.576Z,10.76
2018-09-01T06:00:19.575Z,10.79
2018-09-01T06:01:19.567Z,10.82
2018-09-01T06:02:19.542Z,10.84
2018-09-01T06:03:19.600Z,10.89
2018-09-01T06:04:19.523Z,10.91
2018-09-01T06:05:19.515Z,10.92
2018-09-01T06:06:19.601Z,10.91
2018-09-01T06:07:19.490Z,10.96
2018-09-01T06:08:19.545Z,11.00
2018-09-01T06:09:19.468Z,10.97
2018-09-01T06:10:19.461Z,11.04
2018-09-01T06:11:19.454Z,11.11
2018-09-01T06:12:19.434Z,11.10
2018-09-01T06:13:19.493Z,11.10
2018-09-01T06:14:20.197Z,11.14
2018-09-01T06:15:19.404Z,11.17
2018-09-01T06:16:19.402Z,11.19
2018-09-01T06:17:19.388Z,11.10
2018-09-01T06:18:19.440Z,11.25
2018-09-01T06:19:19.458Z,11.32
2018-09-01T06:20:19.357Z,11.28
2018-09-01T06:21:19.344Z,11.35
2018-09-01T06:22:19.339Z,11.39
2018-09-01T06:23:19.388Z,11.27
2018-09-01T06:24:19.311Z,11.36
2018-09-01T06:25:19.302Z,11.37
2018-09-01T06:26:19.294Z,11.44
2018-09-01T06:27:19.280Z,11.47
2018-09-01T06:28:19.332Z,11.52
2018-09-01T06:29:19.254Z,11.49
2018-09-01T06:30:19.332Z,11.61
2018-09-01T06:31:19.233Z,11.60
2018-09-01T06:32:19.224Z,11.69
2018-09-01T06:33:19.282Z,11.61
2018-09-01T06:34:19.224Z,11.62
2018-09-01T06:35:19.692Z,11.67
2018-09-01T06:36:19.185Z,11.61
2018-09-01T06:37:19.169Z,11.70
2018-09-01T06:38:19.234Z,11.76
2018-09-01T06:39:19.150Z,11.76
2018-09-01T06:40:19.141Z,11.78
2018-09-01T06:41:19.133Z,11.86
2018-09-01T06:42:19.120Z,11.80
2018-09-01T06:43:19.178Z,11.95
2018-09-01T06:44:19.097Z,11.85
2018-09-01T06:45:19.089Z,11.95
2018-09-01T06:46:19.078Z,12.05
2018-09-01T06:47:19.064Z,12.04
2018-09-01T06:48:19.120Z,12.10
2018-09-01T06:49:19.693Z,12.13
2018-09-01T06:50:19.034Z,12.20
2018-09-01T06:51:19.039Z,12.28
2018-09-01T06:52:19.022Z,12.49
2018-09-01T06:53:19.072Z,12.65
2018-09-01T06:54:18.993Z,13.07
2018-09-01T06:55:18.984Z,13.57
2018-09-01T06:56:19.267Z,13.79
2018-09-01T06:57:18.959Z,14.09
2018-09-01T06:58:19.017Z,14.28
2018-09-01T06:59:19.005Z,14.58
2018-09-01T07:00:18.926Z,14.80
2018-09-01T07:01:18.915Z,14.94
2018-09-01T07:02:18.906Z,15.16
2018-09-01T07:03:18.893Z,15.39
2018-09-01T07:04:18.950Z,15.59
2018-09-01T07:05:18.876Z,15.68
2018-09-01T07:06:18.865Z,15.78
2018-09-01T07:07:18.854Z,16.02
2018-09-01T07:08:18.840Z,16.20
2018-09-01T07:09:18.895Z,16.31
2018-09-01T07:10:18.823Z,16.56
2018-09-01T07:11:18.810Z,16.71
2018-09-01T07:12:18.799Z,16.82
2018-09-01T07:13:18.790Z,16.91
2018-09-01T07:14:18.843Z,17.11
2018-09-01T07:15:18.766Z,17.31
2018-09-01T07:16:18.758Z,17.36
2018-09-01T07:17:19.690Z,17.62
2018-09-01T07:18:18.735Z,17.59
2018-09-01T07:19:18.790Z,17.71
2018-09-01T07:20:18.716Z,17.79
2018-09-01T07:21:18.702Z,17.93
2018-09-01T07:22:18.691Z,17.95
2018-09-01T07:23:18.683Z,18.14
2018-09-01T07:24:18.741Z,18.11
2018-09-01T07:25:18.661Z,18.29
2018-09-01T07:26:18.652Z,18.36
2018-09-01T07:27:18.639Z,18.57
2018-09-01T07:28:18.631Z,18.84
2018-09-01T07:29:18.689Z,18.92
2018-09-01T07:30:18.685Z,19.10
2018-09-01T07:31:18.995Z,19.26
2018-09-01T07:32:18.597Z,19.31
2018-09-01T07:33:18.578Z,19.41
2018-09-01T07:34:18.636Z,19.55
2018-09-01T07:35:18.558Z,19.58
2018-09-01T07:36:18.548Z,19.68
2018-09-01T07:37:18.536Z,19.74
2018-09-01T07:38:19.193Z,19.94
2018-09-01T07:39:18.583Z,19.94
2018-09-01T07:40:18.506Z,19.98
2018-09-01T07:41:18.498Z,20.18
2018-09-01T07:42:18.513Z,20.28
2018-09-01T07:43:18.486Z,20.47
2018-09-01T07:44:18.528Z,20.55
2018-09-01T07:45:18.466Z,20.67
2018-09-01T07:46:18.445Z,20.88
2018-09-01T07:47:18.434Z,20.89
2018-09-01T07:48:18.420Z,21.04
2018-09-01T07:49:18.480Z,21.07
2018-09-01T07:50:18.401Z,21.17
2018-09-01T07:51:18.389Z,21.31
2018-09-01T07:52:18.384Z,21.38
2018-09-01T07:53:18.373Z,21.58
2018-09-01T07:54:18.425Z,21.64
2018-09-01T07:55:18.350Z,21.74
2018-09-01T07:56:18.416Z,21.71
2018-09-01T07:57:25.873Z,21.80
2018-09-01T07:58:18.317Z,21.84
2018-09-01T07:59:18.804Z,21.88
2018-09-01T08:00:18.353Z,21.90
2018-09-01T08:01:18.290Z,22.05
2018-09-01T08:02:18.279Z,22.15
2018-09-01T08:03:18.271Z,22.31
2018-09-01T08:04:18.349Z,22.33
2018-09-01T08:05:18.247Z,22.40
2018-09-01T08:06:18.237Z,22.46
2018-09-01T08:07:18.280Z,22.68
2018-09-01T08:08:18.218Z,22.75
2018-09-01T08:09:18.278Z,22.85
2018-09-01T08:10:18.200Z,22.95
2018-09-01T08:11:18.190Z,23.20
2018-09-01T08:12:18.176Z,23.22
2018-09-01T08:13:18.169Z,23.32
2018-09-01T08:14:18.286Z,23.33
2018-09-01T08:15:18.152Z,23.42
2018-09-01T08:16:18.137Z,23.48
2018-09-01T08:17:18.144Z,23.54
2018-09-01T08:18:25.652Z,23.76
2018-09-01T08:19:18.172Z,23.87
2018-09-01T08:20:18.096Z,24.06
2018-09-01T08:21:18.087Z,24.20
2018-09-01T08:22:18.078Z,24.37
2018-09-01T08:23:18.070Z,24.46
2018-09-01T08:24:18.125Z,24.49
2018-09-01T08:25:18.054Z,24.69
2018-09-01T08:26:18.038Z,24.69
2018-09-01T08:27:18.029Z,24.78
2018-09-01T08:28:18.018Z,24.83
2018-09-01T08:29:18.076Z,25.00
2018-09-01T08:30:18.006Z,24.98
2018-09-01T08:31:17.989Z,25.23
2018-09-01T08:32:17.982Z,25.38
2018-09-01T08:33:17.976Z,25.42
2018-09-01T08:34:18.023Z,25.43
2018-09-01T08:35:17.948Z,25.47
2018-09-01T08:36:17.945Z,25.62
2018-09-01T08:37:17.931Z,25.64
2018-09-01T08:38:17.928Z,25.65
2018-09-01T08:39:18.346Z,25.67
2018-09-01T08:40:18.001Z,25.77
2018-09-01T08:41:17.898Z,25.95
2018-09-01T08:42:17.884Z,25.99
2018-09-01T08:43:17.876Z,26.09
2018-09-01T08:44:17.977Z,26.26
2018-09-01T08:45:17.877Z,26.40
2018-09-01T08:46:17.851Z,26.57
2018-09-01T08:47:17.836Z,26.76
2018-09-01T08:48:17.828Z,26.72
2018-09-01T08:49:17.883Z,26.80
2018-09-01T08:50:17.809Z,26.94
2018-09-01T08:51:17.800Z,26.99
2018-09-01T08:52:17.793Z,27.10
2018-09-01T08:53:17.789Z,27.25
2018-09-01T08:54:17.842Z,27.39
2018-09-01T08:55:17.762Z,27.55
2018-09-01T08:56:17.755Z,27.74
2018-09-01T08:57:17.745Z,27.81
2018-09-01T08:58:17.737Z,27.99
2018-09-01T08:59:17.731Z,28.07
2018-09-01T09:00:17.853Z,28.19
2018-09-01T09:01:17.706Z,28.36
2018-09-01T09:02:17.700Z,28.51
2018-09-01T09:03:17.687Z,28.59
2018-09-01T09:04:17.684Z,28.56
2018-09-01T09:05:17.731Z,28.55
2018-09-01T09:06:17.659Z,28.55
2018-09-01T09:07:17.653Z,28.70
2018-09-01T09:08:17.642Z,28.74
2018-09-01T09:09:17.639Z,28.74
2018-09-01T09:10:17.683Z,28.86
2018-09-01T09:11:17.614Z,29.12
2018-09-01T09:12:17.608Z,29.15
2018-09-01T09:13:17.598Z,29.14
2018-09-01T09:14:17.592Z,29.11
2018-09-01T09:15:17.645Z,29.04
2018-09-01T09:16:17.575Z,28.98
2018-09-01T09:17:17.562Z,29.05
2018-09-01T09:18:17.556Z,29.14
2018-09-01T09:19:17.547Z,29.04
2018-09-01T09:20:17.597Z,29.21
2018-09-01T09:21:18.272Z,29.19
2018-09-01T09:22:17.517Z,29.45
2018-09-01T09:23:17.509Z,29.64
2018-09-01T09:24:17.497Z,29.80
2018-09-01T09:25:17.556Z,29.82
2018-09-01T09:26:17.480Z,29.79
2018-09-01T09:27:17.475Z,29.92
2018-09-01T09:28:17.463Z,30.02
2018-09-01T09:29:17.458Z,30.19
2018-09-01T09:30:17.508Z,30.29
2018-09-01T09:31:17.435Z,30.42
2018-09-01T09:32:17.433Z,30.62
2018-09-01T09:33:17.425Z,30.65
2018-09-01T09:34:17.413Z,30.72
2018-09-01T09:35:17.465Z,30.91
2018-09-01T09:36:17.394Z,30.98
2018-09-01T09:37:17.385Z,30.99
2018-09-01T09:38:17.377Z,31.16
2018-09-01T09:39:17.367Z,31.19
2018-09-01T09:40:17.422Z,31.28
2018-09-01T09:41:17.355Z,31.35
2018-09-01T09:42:18.282Z,31.35
2018-09-01T09:43:17.338Z,31.43
2018-09-01T09:44:17.324Z,31.63
2018-09-01T09:45:17.382Z,31.75
2018-09-01T09:46:17.304Z,32.03
2018-09-01T09:47:17.299Z,31.86
2018-09-01T09:48:17.293Z,32.07
2018-09-01T09:49:17.285Z,32.28
2018-09-01T09:50:17.334Z,32.52
2018-09-01T09:51:17.269Z,32.60
2018-09-01T09:52:17.257Z,32.78
2018-09-01T09:53:17.248Z,32.94
2018-09-01T09:54:17.240Z,33.14
2018-09-01T09:55:17.298Z,33.14
2018-09-01T09:56:17.229Z,33.23
2018-09-01T09:57:17.217Z,33.34
2018-09-01T09:58:17.264Z,33.51
2018-09-01T09:59:17.198Z,33.47
2018-09-01T10:00:17.256Z,33.44
2018-09-01T10:01:17.184Z,33.51
2018-09-01T10:02:17.175Z,33.68
2018-09-01T10:03:17.774Z,33.69
2018-09-01T10:04:17.157Z,33.84
2018-09-01T10:05:17.219Z,33.97
2018-09-01T10:06:17.139Z,34.08
2018-09-01T10:07:17.139Z,34.08
2018-09-01T10:08:17.128Z,33.94
2018-09-01T10:09:17.125Z,33.88
2018-09-01T10:10:17.171Z,33.94
2018-09-01T10:11:17.100Z,34.06
2018-09-01T10:12:17.096Z,34.22
2018-09-01T10:13:17.086Z,34.34
2018-09-01T10:14:17.079Z,34.43
2018-09-01T10:15:17.135Z,34.59
2018-09-01T10:16:17.064Z,34.80
2018-09-01T10:17:17.058Z,35.06
2018-09-01T10:18:17.048Z,35.29
2018-09-01T10:19:17.036Z,35.41
2018-09-01T10:20:17.192Z,35.75
2018-09-01T10:21:17.026Z,35.81
2018-09-01T10:22:17.016Z,35.93
2018-09-01T10:23:17.008Z,35.72
2018-09-01T10:24:17.773Z,35.36
2018-09-01T10:25:16.993Z,35.59
2018-09-01T10:26:17.043Z,35.80
2018-09-01T10:27:16.974Z,35.78
2018-09-01T10:28:16.968Z,35.58
2018-09-01T10:29:16.957Z,35.70
2018-09-01T10:30:16.952Z,35.14
2018-09-01T10:31:17.001Z,34.64
2018-09-01T10:32:16.937Z,33.88
2018-09-01T10:33:16.931Z,32.65
2018-09-01T10:34:16.923Z,31.86
2018-09-01T10:35:16.917Z,32.03
2018-09-01T10:36:16.970Z,32.11
2018-09-01T10:37:16.895Z,33.18
2018-09-01T10:38:16.893Z,33.86
2018-09-01T10:39:16.875Z,34.44
2018-09-01T10:40:16.867Z,34.82
2018-09-01T10:41:16.922Z,35.29
2018-09-01T10:42:16.855Z,35.56
2018-09-01T10:43:16.843Z,35.92
2018-09-01T10:44:16.834Z,36.17
2018-09-01T10:45:19.775Z,36.05
2018-09-01T10:46:16.883Z,36.13
2018-09-01T10:47:16.808Z,36.34
2018-09-01T10:48:16.805Z,36.56
2018-09-01T10:49:16.799Z,36.75
2018-09-01T10:50:16.786Z,36.94
2018-09-01T10:51:16.843Z,37.31
2018-09-01T10:52:16.768Z,37.47
2018-09-01T10:53:16.774Z,37.67
2018-09-01T10:54:16.755Z,37.78
2018-09-01T10:55:16.745Z,37.89
2018-09-01T10:56:16.800Z,37.69
2018-09-01T10:57:16.729Z,37.56
2018-09-01T10:58:16.726Z,37.37
2018-09-01T10:59:16.784Z,37.63
2018-09-01T11:00:16.707Z,37.43
2018-09-01T11:01:16.762Z,37.46
2018-09-01T11:02:16.699Z,37.34
2018-09-01T11:03:16.696Z,37.40
2018-09-01T11:04:16.681Z,37.32
2018-09-01T11:05:16.673Z,37.47
2018-09-01T11:06:16.842Z,37.64
2018-09-01T11:07:16.656Z,37.78
2018-09-01T11:08:16.656Z,38.07
2018-09-01T11:09:16.639Z,38.22
2018-09-01T11:10:16.634Z,37.98
2018-09-01T11:11:16.688Z,37.64
2018-09-01T11:12:16.624Z,37.85
2018-09-01T11:13:16.613Z,38.03
2018-09-01T11:14:16.602Z,38.00
2018-09-01T11:15:16.597Z,37.91
2018-09-01T11:16:16.665Z,37.96
2018-09-01T11:17:16.585Z,38.11
2018-09-01T11:18:16.576Z,38.20
2018-09-01T11:19:16.574Z,38.11
2018-09-01T11:20:16.627Z,37.89
2018-09-01T11:21:16.612Z,38.07
2018-09-01T11:22:16.546Z,38.18
2018-09-01T11:23:16.548Z,38.50
2018-09-01T11:24:16.533Z,38.71
2018-09-01T11:25:16.522Z,38.93
2018-09-01T11:26:16.573Z,38.76
2018-09-01T11:27:17.264Z,38.98
2018-09-01T11:28:16.497Z,38.13
2018-09-01T11:29:16.489Z,37.28
2018-09-01T11:30:16.488Z,37.84
2018-09-01T11:31:16.549Z,38.20
2018-09-01T11:32:16.469Z,38.25
2018-09-01T11:33:16.471Z,37.96
2018-09-01T11:34:16.456Z,38.19
2018-09-01T11:35:24.561Z,38.47
2018-09-01T11:36:24.647Z,38.19
2018-09-01T11:37:24.576Z,36.39
2018-09-01T11:38:16.422Z,35.21
2018-09-01T11:39:16.415Z,34.27
2018-09-01T11:40:16.470Z,35.15
2018-09-01T11:41:16.459Z,35.94
2018-09-01T11:42:16.410Z,36.38
2018-09-01T11:43:16.429Z,36.83
2018-09-01T11:44:16.377Z,37.13
2018-09-01T11:45:16.366Z,37.49
2018-09-01T11:46:16.421Z,37.59
2018-09-01T11:47:24.435Z,37.32
2018-09-01T11:48:16.343Z,37.43
2018-09-01T11:49:16.337Z,37.67
2018-09-01T11:50:16.332Z,37.74
2018-09-01T11:51:16.387Z,37.66
2018-09-01T11:52:16.325Z,37.34
2018-09-01T11:53:16.489Z,37.17
2018-09-01T11:54:16.308Z,37.22
2018-09-01T11:55:16.293Z,37.31
2018-09-01T11:56:16.493Z,37.44
2018-09-01T11:57:16.279Z,37.56
2018-09-01T11:58:16.270Z,37.75
2018-09-01T11:59:16.265Z,37.98
2018-09-01T12:00:16.254Z,38.16
2018-09-01T12:01:16.323Z,38.18
2018-09-01T12:02:16.307Z,38.35
2018-09-01T12:03:16.231Z,37.98
2018-09-01T12:04:16.228Z,36.56
2018-09-01T12:05:16.217Z,36.46
2018-09-01T12:06:16.208Z,36.83
2018-09-01T12:07:16.266Z,36.93
2018-09-01T12:08:16.197Z,37.32
2018-09-01T12:09:16.198Z,37.63
2018-09-01T12:10:16.193Z,37.96
2018-09-01T12:11:16.172Z,38.09
2018-09-01T12:12:16.224Z,38.13
2018-09-01T12:13:16.155Z,38.22
2018-09-01T12:14:16.147Z,38.41
2018-09-01T12:15:16.143Z,38.54
2018-09-01T12:16:16.135Z,38.79
2018-09-01T12:17:16.485Z,38.41
2018-09-01T12:18:16.119Z,38.72
2018-09-01T12:19:16.113Z,39.10
2018-09-01T12:20:16.105Z,39.22
2018-09-01T12:21:16.096Z,39.17
2018-09-01T12:22:16.209Z,39.11
2018-09-01T12:23:16.082Z,39.13
2018-09-01T12:24:16.079Z,38.38
2018-09-01T12:25:16.066Z,37.15
2018-09-01T12:26:16.062Z,36.50
2018-09-01T12:27:16.115Z,36.76
2018-09-01T12:28:16.101Z,37.00
2018-09-01T12:29:16.043Z,37.25
2018-09-01T12:30:16.031Z,37.46
2018-09-01T12:31:16.030Z,37.67
2018-09-01T12:32:16.073Z,38.01
2018-09-01T12:33:16.009Z,38.11
2018-09-01T12:34:16.000Z,37.97
2018-09-01T12:35:15.995Z,38.11
2018-09-01T12:36:16.044Z,38.18
2018-09-01T12:37:16.039Z,38.37
2018-09-01T12:38:16.919Z,38.74
2018-09-01T12:39:15.960Z,38.41
2018-09-01T12:40:15.955Z,38.13
2018-09-01T12:41:15.949Z,38.22
2018-09-01T12:42:16.005Z,38.46
2018-09-01T12:43:15.933Z,38.74
2018-09-01T12:44:15.924Z,38.95
2018-09-01T12:45:15.921Z,38.99
2018-09-01T12:46:15.908Z,39.09
2018-09-01T12:47:15.968Z,39.13
2018-09-01T12:48:15.909Z,39.23
2018-09-01T12:49:15.887Z,39.44
2018-09-01T12:50:15.881Z,39.55
2018-09-01T12:51:15.873Z,39.66
2018-09-01T12:52:15.957Z,39.17